Terminal Aerodrome Forecast
Issued by NWS Albany, NY

Home | Current Version | Previous Version | Text Only | Print | Product List | Glossary On
Versions: 1 2 3 4 5 6 7 8 9 10 11 12 13 14 15 16 17 18
571
FTUS41 KALY 241130
TAFPOU
TAF
KPOU 241130Z 2412/2512 VRB03KT P6SM VCSH SCT030 OVC060
      TEMPO 2412/2416 3SM -SHRA BR OVC030
     FM241700 35006KT P6SM VCSH SCT025 OVC050
     FM250400 VRB03KT P6SM SCT110
     FM250600 00000KT 3SM BR FEW250=

USA.gov is the U.S. government's official web portal to all federal, state and local government web resources and services.